Time;durP1;ratioP1;P1;durP2;ratioP2;P2;SDS_P1;SDS_P2;PMS_P1;PMS_P2;Temp;Humidity;BMP_temperature;BMP_pressure;BME280_temperature;BME280_humidity;BME280_pressure;Samples;Min_cycle;Max_cycle;Signal;HPM_P1;HPM_P2
2024/01/28 00:00:43;;;;;;;;;;;;;;;-1.98;86.17;102263.13;4948202;28;19933;-85
2024/01/28 00:03:10;;;;;;;;;;;;;;;-1.94;86.74;102271.91;4919458;28;19950;-85
2024/01/28 00:05:36;;;;;;;;;;;;;;;-1.92;86.18;102263.50;4947363;28;20004;-84
2024/01/28 00:08:06;;;;;;;;;;;;;;;-1.81;86.52;102259.06;4946598;28;19942;-83
2024/01/28 00:10:33;;;;;;;;;;;;;;;-1.71;86.27;102251.91;4947971;28;19927;-83
2024/01/28 00:13:00;;;;;;;;;;;;;;;-1.88;86.24;102254.31;4944113;28;19941;-88
2024/01/28 00:15:26;;;;;;;;;;;;;;;-1.85;86.12;102253.63;4946106;28;19927;-83
2024/01/28 00:17:54;;;;;;;;;;;;;;;-1.87;86.09;102240.63;4947115;28;20041;-83
2024/01/28 00:20:20;;;;;;;;;;;;;;;-2.04;85.97;102244.72;4945706;28;19942;-85
2024/01/28 00:22:47;;;;;;;;;;;;;;;-1.89;86.42;102242.22;4947487;28;19962;-84
2024/01/28 00:25:14;;;;;;;;;;;;;;;-1.83;85.91;102242.63;4942672;28;19933;-86
2024/01/28 00:27:41;;;;;;;;;;;;;;;-1.92;86.20;102239.47;4926494;28;19930;-83
2024/01/28 00:30:11;;;;;;;;;;;;;;;-1.95;86.17;102236.69;4950429;28;19930;-84
2024/01/28 00:32:40;;;;;;;;;;;;;;;-1.87;86.64;102238.06;4937949;28;19927;-83
2024/01/28 00:35:08;;;;;;;;;;;;;;;-1.87;86.84;102235.47;4934614;28;19933;-90
2024/01/28 00:37:35;;;;;;;;;;;;;;;-1.68;86.80;102236.66;4951780;28;19927;-85
2024/01/28 00:40:03;;;;;;;;;;;;;;;-1.78;86.51;102230.06;4947525;28;19934;-83
2024/01/28 00:42:30;;;;;;;;;;;;;;;-1.70;86.79;102238.25;4950872;28;19935;-84
2024/01/28 00:44:57;;;;;;;;;;;;;;;-1.81;86.37;102223.03;4943027;28;20025;-83
2024/01/28 00:47:24;;;;;;;;;;;;;;;-1.69;86.77;102232.34;4938095;28;19926;-83
2024/01/28 00:49:50;;;;;;;;;;;;;;;-1.72;86.53;102221.81;4952804;28;19930;-84
2024/01/28 00:52:17;;;;;;;;;;;;;;;-1.84;86.75;102224.50;4952148;28;19989;-83
2024/01/28 00:54:44;;;;;;;;;;;;;;;-1.70;86.78;102220.25;4950374;28;19965;-86
2024/01/28 00:57:11;;;;;;;;;;;;;;;-1.76;86.72;102219.03;4946234;28;19930;-83
2024/01/28 00:59:38;;;;;;;;;;;;;;;-1.77;86.75;102219.88;4954662;28;19926;-83
2024/01/28 01:02:04;;;;;;;;;;;;;;;-1.77;86.60;102217.28;4950683;28;19932;-84
2024/01/28 01:04:31;;;;;;;;;;;;;;;-1.70;86.78;102217.66;4952086;28;19933;-84
2024/01/28 01:06:58;;;;;;;;;;;;;;;-1.73;86.46;102220.06;4949023;28;19938;-83
2024/01/28 01:09:25;;;;;;;;;;;;;;;-1.89;86.81;102216.50;4953318;28;19930;-83
2024/01/28 01:11:52;;;;;;;;;;;;;;;-1.82;86.82;102213.53;4951668;28;20310;-84
2024/01/28 01:14:18;;;;;;;;;;;;;;;-1.77;86.93;102207.00;4938210;28;20026;-84
2024/01/28 01:16:45;;;;;;;;;;;;;;;-1.76;86.71;102213.03;4932754;28;19930;-83
2024/01/28 01:19:11;;;;;;;;;;;;;;;-1.90;86.90;102214.69;4936837;28;19927;-83
2024/01/28 01:21:38;;;;;;;;;;;;;;;-1.82;86.92;102203.22;4937297;29;19926;-89
2024/01/28 01:24:05;;;;;;;;;;;;;;;-1.83;86.97;102205.69;4938181;28;19926;-83
2024/01/28 01:26:32;;;;;;;;;;;;;;;-1.89;86.86;102201.06;4929193;28;19973;-85
2024/01/28 01:28:58;;;;;;;;;;;;;;;-1.90;87.08;102199.25;4937762;29;19927;-83
2024/01/28 01:31:25;;;;;;;;;;;;;;;-1.84;86.78;102199.69;4944739;28;19937;-84
2024/01/28 01:33:52;;;;;;;;;;;;;;;-1.98;86.72;102203.06;4949509;28;19927;-83
2024/01/28 01:36:19;;;;;;;;;;;;;;;-1.97;86.61;102204.81;4950567;28;20298;-85
2024/01/28 01:38:47;;;;;;;;;;;;;;;-1.97;86.19;102195.44;4949863;28;19965;-84
2024/01/28 01:41:14;;;;;;;;;;;;;;;-1.92;85.96;102194.03;4951299;28;20385;-84
2024/01/28 01:43:40;;;;;;;;;;;;;;;-1.98;85.76;102203.06;4942805;28;19934;-83
2024/01/28 01:46:09;;;;;;;;;;;;;;;-2.15;86.24;102207.97;4948546;28;19927;-85
2024/01/28 01:48:36;;;;;;;;;;;;;;;-2.20;86.50;102204.22;4950160;28;19932;-86
2024/01/28 01:51:04;;;;;;;;;;;;;;;-2.23;86.92;102200.56;4951234;28;19930;-84
2024/01/28 01:53:30;;;;;;;;;;;;;;;-2.29;86.98;102194.25;4929910;29;20204;-84
2024/01/28 01:55:57;;;;;;;;;;;;;;;-2.23;86.82;102193.75;4949406;28;20301;-86
2024/01/28 01:58:24;;;;;;;;;;;;;;;-2.29;86.76;102188.19;4947982;28;19926;-85
2024/01/28 02:00:52;;;;;;;;;;;;;;;-2.18;86.52;102186.31;4933573;28;19977;-85
2024/01/28 02:03:19;;;;;;;;;;;;;;;-2.27;86.31;102191.75;4947100;28;19950;-85
2024/01/28 02:05:46;;;;;;;;;;;;;;;-2.19;86.19;102180.28;4948660;28;19938;-86
2024/01/28 02:08:13;;;;;;;;;;;;;;;-2.33;86.14;102181.06;4930981;28;19937;-87
2024/01/28 02:10:43;;;;;;;;;;;;;;;-2.28;86.04;102171.97;4928057;29;19934;-87
2024/01/28 02:13:10;;;;;;;;;;;;;;;-2.35;86.46;102173.25;4947374;28;19950;-86
2024/01/28 02:15:40;;;;;;;;;;;;;;;-2.37;86.39;102179.09;4942661;28;19980;-84
2024/01/28 02:18:07;;;;;;;;;;;;;;;-2.32;86.43;102172.56;4950421;28;20003;-85
2024/01/28 02:20:34;;;;;;;;;;;;;;;-2.25;86.00;102171.28;4932836;29;19927;-82
2024/01/28 02:23:01;;;;;;;;;;;;;;;-2.39;85.97;102165.22;4952697;28;19926;-82
2024/01/28 02:25:27;;;;;;;;;;;;;;;-2.32;86.17;102162.28;4950970;28;19934;-84
2024/01/28 02:27:54;;;;;;;;;;;;;;;-2.37;85.82;102163.66;4951240;28;19933;-86
2024/01/28 02:30:21;;;;;;;;;;;;;;;-2.48;85.92;102161.28;4933347;29;19950;-85
2024/01/28 02:32:49;;;;;;;;;;;;;;;-2.53;85.89;102152.38;4929116;28;19950;-85
2024/01/28 02:35:17;;;;;;;;;;;;;;;-2.54;85.88;102145.44;4928438;28;19926;-86
2024/01/28 02:37:44;;;;;;;;;;;;;;;-2.66;86.18;102142.06;4948021;28;19926;-87
2024/01/28 02:40:11;;;;;;;;;;;;;;;-2.73;86.24;102143.34;4962558;28;19926;-85
2024/01/28 02:42:38;;;;;;;;;;;;;;;-2.66;86.34;102140.38;4945584;28;19926;-88
2024/01/28 02:45:05;;;;;;;;;;;;;;;-2.65;86.30;102147.31;4964946;28;19962;-85
2024/01/28 02:47:31;;;;;;;;;;;;;;;-2.68;86.32;102146.22;4942995;28;19926;-85
2024/01/28 02:49:58;;;;;;;;;;;;;;;-2.70;86.41;102135.81;4922438;28;19983;-86
2024/01/28 02:52:25;;;;;;;;;;;;;;;-2.85;86.60;102137.41;4947988;28;20119;-85
2024/01/28 02:54:52;;;;;;;;;;;;;;;-2.76;86.66;102139.69;4961912;23;19934;-81
2024/01/28 02:57:18;;;;;;;;;;;;;;;-2.81;86.79;102140.28;4941519;28;19926;-81
2024/01/28 02:59:45;;;;;;;;;;;;;;;-2.84;86.85;102147.78;4930053;28;19934;-81
2024/01/28 03:02:12;;;;;;;;;;;;;;;-2.81;86.72;102150.56;4926294;28;19927;-83
2024/01/28 03:04:39;;;;;;;;;;;;;;;-2.91;86.54;102150.72;4923408;29;19927;-82
2024/01/28 03:07:06;;;;;;;;;;;;;;;-2.97;86.72;102152.88;4924780;28;19933;-83
2024/01/28 03:09:33;;;;;;;;;;;;;;;-2.96;87.16;102159.78;4919463;29;20014;-83
2024/01/28 03:11:59;;;;;;;;;;;;;;;-2.94;87.00;102154.75;4945879;28;19937;-83
2024/01/28 03:14:26;;;;;;;;;;;;;;;-2.97;86.76;102151.22;4930331;28;19931;-83
2024/01/28 03:16:53;;;;;;;;;;;;;;;-2.89;87.03;102150.84;4926439;29;19978;-82
2024/01/28 03:19:20;;;;;;;;;;;;;;;-2.99;86.68;102144.19;4926703;28;20006;-83
2024/01/28 03:21:46;;;;;;;;;;;;;;;-3.03;87.23;102152.47;4943547;28;19941;-83
2024/01/28 03:24:13;;;;;;;;;;;;;;;-3.01;87.19;102148.34;4931648;28;20355;-82
2024/01/28 03:26:40;;;;;;;;;;;;;;;-2.91;87.26;102153.31;4926698;28;20044;-81
2024/01/28 03:29:07;;;;;;;;;;;;;;;-2.99;87.21;102154.44;4929244;29;19927;-83
2024/01/28 03:31:34;;;;;;;;;;;;;;;-3.21;86.96;102158.13;4928887;28;19930;-82
2024/01/28 03:34:00;;;;;;;;;;;;;;;-3.14;87.04;102156.88;4930268;28;19949;-81
2024/01/28 03:36:27;;;;;;;;;;;;;;;-3.06;86.98;102152.25;4918693;28;19927;-83
2024/01/28 03:38:54;;;;;;;;;;;;;;;-3.11;87.19;102148.47;4916043;28;19974;-82
2024/01/28 03:41:21;;;;;;;;;;;;;;;-3.11;87.24;102148.47;4923486;29;19938;-82
2024/01/28 03:43:48;;;;;;;;;;;;;;;-3.07;87.14;102159.09;4927620;28;19937;-82
2024/01/28 03:46:14;;;;;;;;;;;;;;;-3.04;87.33;102158.38;4929309;28;19931;-82
2024/01/28 03:48:41;;;;;;;;;;;;;;;-3.00;87.23;102158.72;4917098;28;19934;-82
2024/01/28 03:51:08;;;;;;;;;;;;;;;-3.13;87.07;102165.47;4922986;29;19927;-81
2024/01/28 03:53:35;;;;;;;;;;;;;;;-2.97;86.70;102158.91;4926048;28;19927;-80
2024/01/28 03:56:01;;;;;;;;;;;;;;;-3.22;86.92;102165.72;4928387;28;20595;-81
2024/01/28 03:58:28;;;;;;;;;;;;;;;-3.27;87.09;102164.50;4926470;28;20006;-83
2024/01/28 04:00:55;;;;;;;;;;;;;;;-3.35;87.56;102159.75;4925758;28;19927;-82
2024/01/28 04:03:22;;;;;;;;;;;;;;;-3.28;86.87;102161.06;4917663;29;19927;-83
2024/01/28 04:05:48;;;;;;;;;;;;;;;-3.25;86.86;102156.13;4913057;29;19994;-84
2024/01/28 04:08:15;;;;;;;;;;;;;;;-3.37;87.07;102166.47;4918073;28;19927;-83
2024/01/28 04:10:41;;;;;;;;;;;;;;;-3.58;87.42;102164.97;4929745;28;19931;-83
2024/01/28 04:13:09;;;;;;;;;;;;;;;-3.40;87.44;102161.13;4929216;29;19933;-80
2024/01/28 04:15:35;;;;;;;;;;;;;;;-3.36;87.27;102151.94;4924706;28;19960;-82
2024/01/28 04:18:02;;;;;;;;;;;;;;;-3.37;87.49;102147.59;4922493;28;19927;-83
2024/01/28 04:20:29;;;;;;;;;;;;;;;-3.46;87.43;102146.94;4915560;29;20023;-82
2024/01/28 04:22:56;;;;;;;;;;;;;;;-3.35;87.25;102143.44;4906413;29;19933;-82
2024/01/28 04:25:22;;;;;;;;;;;;;;;-3.47;87.03;102147.75;4927366;29;19934;-82
2024/01/28 04:27:49;;;;;;;;;;;;;;;-3.48;87.35;102148.53;4928265;28;20330;-82
2024/01/28 04:30:16;;;;;;;;;;;;;;;-3.48;87.31;102143.41;4929301;28;19927;-83
2024/01/28 04:32:44;;;;;;;;;;;;;;;-3.46;86.98;102146.94;4933856;28;19931;-82
2024/01/28 04:35:12;;;;;;;;;;;;;;;-3.52;86.98;102147.41;4932467;28;19982;-83
2024/01/28 04:37:39;;;;;;;;;;;;;;;-3.52;87.00;102148.31;4935587;28;19930;-83
2024/01/28 04:40:06;;;;;;;;;;;;;;;-3.42;86.78;102146.38;4936063;28;19933;-82
2024/01/28 04:42:33;;;;;;;;;;;;;;;-3.46;87.00;102149.53;4926627;28;19931;-81
2024/01/28 04:45:00;;;;;;;;;;;;;;;-3.56;87.09;102135.19;4926040;28;19935;-82
2024/01/28 04:47:26;;;;;;;;;;;;;;;-3.44;86.91;102135.13;4926577;29;19941;-82
2024/01/28 04:49:53;;;;;;;;;;;;;;;-3.34;86.51;102129.84;4931975;28;19930;-83
2024/01/28 04:52:20;;;;;;;;;;;;;;;-3.53;86.06;102138.84;4931147;29;19950;-83
2024/01/28 04:54:47;;;;;;;;;;;;;;;-3.69;86.90;102134.31;4931444;29;19926;-82
2024/01/28 04:57:14;;;;;;;;;;;;;;;-3.64;87.56;102134.63;4931127;29;19937;-82
2024/01/28 04:59:41;;;;;;;;;;;;;;;-3.47;87.45;102140.06;4931121;29;20026;-83
2024/01/28 05:02:07;;;;;;;;;;;;;;;-3.68;87.44;102140.31;4932724;28;19934;-83
2024/01/28 05:04:34;;;;;;;;;;;;;;;-3.73;87.55;102141.69;4924976;28;19927;-83
2024/01/28 05:07:01;;;;;;;;;;;;;;;-3.64;88.05;102129.50;4932283;29;20350;-83
2024/01/28 05:09:27;;;;;;;;;;;;;;;-3.71;87.97;102128.19;4927809;28;19927;-82
2024/01/28 05:11:54;;;;;;;;;;;;;;;-3.72;87.62;102130.63;4930627;29;19926;-83
2024/01/28 05:14:21;;;;;;;;;;;;;;;-3.72;87.67;102138.31;4930123;28;19927;-83
2024/01/28 05:16:48;;;;;;;;;;;;;;;-3.70;87.41;102139.34;4931349;28;19934;-82
2024/01/28 05:19:14;;;;;;;;;;;;;;;-3.70;87.35;102136.78;4919259;28;19927;-82
2024/01/28 05:21:41;;;;;;;;;;;;;;;-3.85;87.58;102134.91;4929285;29;19927;-82
2024/01/28 05:24:08;;;;;;;;;;;;;;;-3.76;87.59;102133.78;4929506;29;19951;-82
2024/01/28 05:26:36;;;;;;;;;;;;;;;-3.74;87.77;102132.22;4911301;29;20013;-82
2024/01/28 05:29:05;;;;;;;;;;;;;;;-3.83;87.92;102126.44;4932238;29;19942;-83
2024/01/28 05:31:32;;;;;;;;;;;;;;;-3.81;87.90;102132.56;4927002;28;19926;-83
2024/01/28 05:34:00;;;;;;;;;;;;;;;-3.96;87.84;102135.81;4928582;29;19961;-82
2024/01/28 05:36:27;;;;;;;;;;;;;;;-3.82;88.12;102133.34;4927633;28;19937;-83
2024/01/28 05:38:57;;;;;;;;;;;;;;;-3.83;88.18;102121.31;4924828;29;20018;-82
2024/01/28 05:41:24;;;;;;;;;;;;;;;-4.11;88.59;102124.47;4924486;28;20026;-83
2024/01/28 05:43:51;;;;;;;;;;;;;;;-4.03;88.74;102128.47;4932239;28;19927;-83
2024/01/28 05:46:18;;;;;;;;;;;;;;;-4.04;89.01;102121.56;4926708;28;20021;-82
2024/01/28 05:48:44;;;;;;;;;;;;;;;-3.91;88.63;102124.22;4930343;28;19973;-82
2024/01/28 05:51:12;;;;;;;;;;;;;;;-3.92;88.79;102122.44;4929441;29;19926;-83
2024/01/28 05:53:38;;;;;;;;;;;;;;;-3.90;88.76;102118.28;4931337;28;19931;-83
2024/01/28 05:56:06;;;;;;;;;;;;;;;-4.01;88.72;102126.94;4928069;28;19938;-82
2024/01/28 05:58:33;;;;;;;;;;;;;;;-4.00;88.07;102127.81;4930363;28;19974;-83
2024/01/28 06:01:05;;;;;;;;;;;;;;;-4.08;88.10;102114.44;4923635;28;19942;-83
2024/01/28 06:03:33;;;;;;;;;;;;;;;-3.99;88.22;102120.22;4920692;29;19933;-83
2024/01/28 06:06:00;;;;;;;;;;;;;;;-4.05;88.15;102119.78;4920842;29;19934;-83
2024/01/28 06:08:28;;;;;;;;;;;;;;;-4.17;88.48;102124.94;4927175;28;19930;-83
2024/01/28 06:10:56;;;;;;;;;;;;;;;-3.95;88.34;102124.78;4932049;28;19927;-83
2024/01/28 06:13:22;;;;;;;;;;;;;;;-4.13;88.24;102126.91;4927101;28;19927;-81
2024/01/28 06:15:50;;;;;;;;;;;;;;;-4.28;88.03;102116.47;4923785;28;19927;-83
2024/01/28 06:18:19;;;;;;;;;;;;;;;-4.29;88.47;102124.94;4923614;28;19927;-82
2024/01/28 06:20:46;;;;;;;;;;;;;;;-4.34;88.88;102126.28;4928608;28;19986;-83
2024/01/28 06:23:12;;;;;;;;;;;;;;;-4.11;88.53;102119.31;4926577;29;19934;-83
2024/01/28 06:25:39;;;;;;;;;;;;;;;-4.21;88.69;102121.25;4924760;29;19927;-82
2024/01/28 06:28:06;;;;;;;;;;;;;;;-4.18;88.76;102117.16;4920173;28;19935;-82
2024/01/28 06:30:33;;;;;;;;;;;;;;;-4.25;88.66;102119.25;4919240;28;19933;-83
2024/01/28 06:33:00;;;;;;;;;;;;;;;-4.13;88.37;102120.91;4930347;28;19934;-83
2024/01/28 06:35:27;;;;;;;;;;;;;;;-4.18;88.14;102109.44;4924817;28;19934;-82
2024/01/28 06:37:53;;;;;;;;;;;;;;;-4.24;88.37;102115.91;4927810;28;19931;-83
2024/01/28 06:40:20;;;;;;;;;;;;;;;-4.39;88.61;102112.22;4927311;28;19927;-83
2024/01/28 06:42:46;;;;;;;;;;;;;;;-4.33;88.68;102109.22;4921517;28;19957;-83
2024/01/28 06:45:13;;;;;;;;;;;;;;;-4.35;88.47;102116.81;4915263;29;19927;-83
2024/01/28 06:47:40;;;;;;;;;;;;;;;-4.26;88.35;102108.88;4915949;29;19927;-82
2024/01/28 06:50:07;;;;;;;;;;;;;;;-4.36;88.41;102107.31;4931460;28;19927;-82
2024/01/28 06:52:34;;;;;;;;;;;;;;;-4.28;88.34;102113.91;4925800;29;19934;-82
2024/01/28 06:55:00;;;;;;;;;;;;;;;-4.31;88.09;102111.13;4908712;28;19927;-82
2024/01/28 06:57:27;;;;;;;;;;;;;;;-4.27;88.27;102108.00;4909134;28;19926;-83
2024/01/28 06:59:54;;;;;;;;;;;;;;;-4.24;88.23;102102.22;4927053;29;19993;-83
2024/01/28 07:02:24;;;;;;;;;;;;;;;-4.20;87.92;102114.44;4924788;29;19927;-83
2024/01/28 07:04:51;;;;;;;;;;;;;;;-4.35;88.06;102116.81;4928184;28;19995;-83
2024/01/28 07:07:18;;;;;;;;;;;;;;;-4.39;88.14;102117.34;4924221;29;19927;-83
2024/01/28 07:09:45;;;;;;;;;;;;;;;-4.30;88.66;102118.03;4929834;28;19933;-83
2024/01/28 07:12:11;;;;;;;;;;;;;;;-4.49;88.64;102122.59;4929676;28;19933;-81
2024/01/28 07:14:38;;;;;;;;;;;;;;;-4.34;89.05;102116.03;4928542;28;19926;-82
2024/01/28 07:17:05;;;;;;;;;;;;;;;-4.26;88.79;102125.19;4930830;28;19927;-82
2024/01/28 07:19:31;;;;;;;;;;;;;;;-4.26;88.61;102114.00;4926979;28;19941;-81
2024/01/28 07:21:58;;;;;;;;;;;;;;;-4.23;88.56;102120.25;4920797;29;20310;-80
2024/01/28 07:24:25;;;;;;;;;;;;;;;-4.24;88.70;102123.59;4928273;28;20037;-80
2024/01/28 07:26:52;;;;;;;;;;;;;;;-4.25;88.58;102126.94;4926158;28;19927;-84
2024/01/28 07:29:18;;;;;;;;;;;;;;;-4.26;88.98;102122.59;4905878;29;19970;-85
2024/01/28 07:31:45;;;;;;;;;;;;;;;-4.27;88.79;102128.50;4920871;29;19927;-85
2024/01/28 07:34:12;;;;;;;;;;;;;;;-3.90;88.87;102115.72;4906790;28;19935;-84
2024/01/28 07:36:38;;;;;;;;;;;;;;;-4.20;88.17;102120.47;4902861;28;19927;-85
2024/01/28 07:39:06;;;;;;;;;;;;;;;-4.18;88.09;102117.16;4913083;28;19962;-85
2024/01/28 07:41:35;;;;;;;;;;;;;;;-4.34;88.30;102110.00;4907983;28;19928;-85
2024/01/28 07:44:03;;;;;;;;;;;;;;;-4.27;88.73;102117.34;4920188;28;19955;-84
2024/01/28 07:46:29;;;;;;;;;;;;;;;-4.24;88.63;102122.72;4925161;28;19935;-86
2024/01/28 07:48:56;;;;;;;;;;;;;;;-4.30;89.19;102119.69;4928093;28;19935;-84
2024/01/28 07:51:23;;;;;;;;;;;;;;;-4.03;88.88;102120.78;4926590;28;19938;-85
2024/01/28 07:53:50;;;;;;;;;;;;;;;-4.17;89.16;102109.56;4924980;28;20054;-84
2024/01/28 07:56:16;;;;;;;;;;;;;;;-4.13;89.30;102116.66;4923499;29;19938;-84
2024/01/28 07:58:43;;;;;;;;;;;;;;;-4.13;89.35;102118.34;4926711;28;19926;-84
2024/01/28 08:01:13;;;;;;;;;;;;;;;-4.04;89.19;102109.63;4924382;28;19931;-84
2024/01/28 08:03:39;;;;;;;;;;;;;;;-3.97;89.18;102110.94;4924596;28;19927;-85
2024/01/28 08:06:07;;;;;;;;;;;;;;;-4.05;89.45;102114.66;4922951;29;19931;-85
2024/01/28 08:08:34;;;;;;;;;;;;;;;-3.94;89.93;102111.19;4923869;28;19942;-84
2024/01/28 08:11:01;;;;;;;;;;;;;;;-3.95;89.78;102106.84;4929464;28;19930;-85
2024/01/28 08:13:27;;;;;;;;;;;;;;;-3.97;89.89;102117.75;4923867;29;19926;-85
2024/01/28 08:16:01;;;;;;;;;;;;;;;-3.81;90.30;102114.59;4903285;28;19927;-82
2024/01/28 08:18:28;;;;;;;;;;;;;;;-3.98;89.52;102116.88;4896920;28;19937;-84
2024/01/28 08:20:56;;;;;;;;;;;;;;;-3.75;90.16;102115.94;4906592;28;20319;-85
2024/01/28 08:23:22;;;;;;;;;;;;;;;-3.72;90.53;102110.09;4926192;28;20033;-85
2024/01/28 08:25:49;;;;;;;;;;;;;;;-3.61;90.76;102113.44;4931107;28;19994;-85
2024/01/28 08:28:16;;;;;;;;;;;;;;;-3.40;91.28;102108.88;4926854;28;19970;-86
2024/01/28 08:30:44;;;;;;;;;;;;;;;-3.30;91.29;102108.72;4917079;28;19939;-85
2024/01/28 08:33:10;;;;;;;;;;;;;;;-3.29;91.32;102110.47;4908418;28;19927;-85
2024/01/28 08:35:37;;;;;;;;;;;;;;;-3.18;91.54;102106.09;4922225;28;19966;-86
2024/01/28 08:38:08;;;;;;;;;;;;;;;-3.11;91.15;102110.84;4931463;28;19981;-85
2024/01/28 08:40:34;;;;;;;;;;;;;;;-3.06;91.12;102106.03;4925444;28;19927;-85
2024/01/28 08:43:04;;;;;;;;;;;;;;;-2.96;91.00;102108.41;4920619;28;19939;-86
2024/01/28 08:45:30;;;;;;;;;;;;;;;-3.00;90.84;102106.41;4922677;28;19935;-85
2024/01/28 08:47:57;;;;;;;;;;;;;;;-2.80;90.94;102102.59;4918044;29;19933;-86
2024/01/28 08:50:24;;;;;;;;;;;;;;;-2.70;90.99;102111.81;4908914;28;19927;-85
2024/01/28 08:52:51;;;;;;;;;;;;;;;-2.86;90.74;102115.94;4915509;29;20003;-85
2024/01/28 08:55:18;;;;;;;;;;;;;;;-2.64;91.04;102115.69;4907826;29;19964;-86
2024/01/28 08:57:45;;;;;;;;;;;;;;;-2.58;90.81;102112.59;4925634;28;19947;-84
2024/01/28 09:00:12;;;;;;;;;;;;;;;-2.57;90.75;102118.66;4929684;28;19927;-85
2024/01/28 09:02:39;;;;;;;;;;;;;;;-2.56;90.72;102121.31;4929648;28;19934;-85
2024/01/28 09:05:07;;;;;;;;;;;;;;;-2.49;91.11;102118.34;4927698;28;20022;-84
2024/01/28 09:07:34;;;;;;;;;;;;;;;-2.42;90.75;102123.88;4928506;29;19950;-85
2024/01/28 09:10:01;;;;;;;;;;;;;;;-2.35;90.67;102120.94;4918609;29;19939;-85
2024/01/28 09:12:28;;;;;;;;;;;;;;;-2.32;90.64;102124.59;4904729;28;19933;-85
2024/01/28 09:14:55;;;;;;;;;;;;;;;-2.33;90.98;102119.31;4917862;28;19927;-85
2024/01/28 09:17:21;;;;;;;;;;;;;;;-2.27;91.06;102130.03;4925649;28;20025;-85
2024/01/28 09:19:48;;;;;;;;;;;;;;;-2.20;91.12;102137.34;4930895;28;19927;-85
2024/01/28 09:22:15;;;;;;;;;;;;;;;-2.14;90.90;102131.72;4925672;28;19927;-83
2024/01/28 09:24:42;;;;;;;;;;;;;;;-2.03;90.88;102134.94;4931731;28;19927;-84
2024/01/28 09:27:10;;;;;;;;;;;;;;;-2.16;90.82;102134.19;4916243;28;19959;-86
2024/01/28 09:29:37;;;;;;;;;;;;;;;-2.07;91.00;102139.03;4917712;28;19997;-85
2024/01/28 09:32:04;;;;;;;;;;;;;;;-2.03;90.47;102142.66;4924685;28;19931;-84
2024/01/28 09:34:31;;;;;;;;;;;;;;;-2.02;90.44;102142.75;4925048;28;19935;-86
2024/01/28 09:36:58;;;;;;;;;;;;;;;-1.95;90.61;102142.34;4922768;29;19934;-85
2024/01/28 09:39:25;;;;;;;;;;;;;;;-1.82;90.27;102138.88;4923801;28;20017;-86
2024/01/28 09:42:10;;;;;;;;;;;;;;;-1.78;90.24;102143.44;4912349;28;19935;-85
2024/01/28 09:44:38;;;;;;;;;;;;;;;-1.67;90.09;102135.47;4917194;28;19966;-86
2024/01/28 09:47:06;;;;;;;;;;;;;;;-1.62;89.76;102134.09;4907517;29;19933;-85
2024/01/28 09:49:39;;;;;;;;;;;;;;;-1.64;89.65;102133.09;4911590;29;19934;-85
2024/01/28 09:52:10;;;;;;;;;;;;;;;-1.54;89.68;102143.16;4927272;29;19973;-86
2024/01/28 09:54:37;;;;;;;;;;;;;;;-1.53;89.68;102144.94;4924048;29;19955;-85
2024/01/28 09:57:05;;;;;;;;;;;;;;;-1.32;89.43;102140.22;4911675;29;19959;-85
2024/01/28 09:59:37;;;;;;;;;;;;;;;-1.26;89.29;102149.97;4919657;29;19945;-84
2024/01/28 10:02:05;;;;;;;;;;;;;;;-1.22;89.21;102146.81;4923515;28;19930;-86
2024/01/28 10:04:32;;;;;;;;;;;;;;;-1.06;88.84;102152.09;4924851;29;19934;-87
2024/01/28 10:06:59;;;;;;;;;;;;;;;-1.08;88.66;102148.50;4904847;28;19994;-85
2024/01/28 10:09:27;;;;;;;;;;;;;;;-1.04;88.59;102144.44;4909127;28;19983;-86
2024/01/28 10:11:54;;;;;;;;;;;;;;;-1.03;88.74;102147.91;4924854;28;19926;-86
2024/01/28 10:14:20;;;;;;;;;;;;;;;-0.99;88.37;102147.28;4922782;28;19927;-85
2024/01/28 10:16:48;;;;;;;;;;;;;;;-0.94;88.61;102140.72;4923383;28;19928;-86
2024/01/28 10:19:14;;;;;;;;;;;;;;;-0.85;88.55;102133.53;4919895;28;19931;-83
2024/01/28 10:21:44;;;;;;;;;;;;;;;-0.68;87.99;102131.03;4926158;28;19927;-85
2024/01/28 10:24:11;;;;;;;;;;;;;;;-0.64;87.96;102127.84;4925460;28;19981;-85
2024/01/28 10:26:37;;;;;;;;;;;;;;;-0.59;87.96;102136.75;4906019;28;19982;-86
2024/01/28 10:29:06;;;;;;;;;;;;;;;-0.54;87.36;102124.97;4923978;28;19931;-86
2024/01/28 10:31:33;;;;;;;;;;;;;;;-0.33;87.17;102125.31;4911527;28;19928;-88
2024/01/28 10:34:00;;;;;;;;;;;;;;;-0.32;87.38;102124.50;4929357;28;19927;-88
2024/01/28 10:36:27;;;;;;;;;;;;;;;-0.22;86.97;102119.09;4928683;28;19986;-88
2024/01/28 10:38:54;;;;;;;;;;;;;;;-0.23;86.46;102121.56;4908165;28;19988;-87
2024/01/28 10:41:21;;;;;;;;;;;;;;;-0.05;86.28;102114.81;4902792;28;19943;-90
2024/01/28 10:43:52;;;;;;;;;;;;;;;-0.09;86.35;102112.88;4918048;29;19962;-87
2024/01/28 10:46:19;;;;;;;;;;;;;;;-0.04;85.82;102115.75;4910351;28;19927;-88
2024/01/28 10:48:46;;;;;;;;;;;;;;;-0.03;86.30;102110.66;4924407;28;19935;-86
2024/01/28 10:51:13;;;;;;;;;;;;;;;0.36;85.58;102104.09;4920342;28;19927;-86
2024/01/28 10:53:40;;;;;;;;;;;;;;;0.34;84.97;102110.03;4911983;28;19937;-87
2024/01/28 10:56:07;;;;;;;;;;;;;;;0.43;84.96;102112.22;4936040;28;19927;-87
2024/01/28 10:58:34;;;;;;;;;;;;;;;0.54;85.46;102105.06;4923392;28;19934;-87
2024/01/28 11:01:02;;;;;;;;;;;;;;;0.68;85.08;102096.34;4921572;29;20006;-87
2024/01/28 11:03:29;;;;;;;;;;;;;;;0.69;84.39;102094.63;4914705;29;19935;-86
2024/01/28 11:05:56;;;;;;;;;;;;;;;0.82;84.06;102096.16;4927351;29;20021;-87
2024/01/28 11:08:25;;;;;;;;;;;;;;;0.73;83.49;102082.78;4918825;28;20132;-88
2024/01/28 11:10:52;;;;;;;;;;;;;;;0.72;83.78;102071.53;4915013;29;19926;-86
2024/01/28 11:13:19;;;;;;;;;;;;;;;0.96;83.33;102073.59;4927336;28;19949;-86
2024/01/28 11:15:46;;;;;;;;;;;;;;;1.18;82.93;102066.09;4926859;29;19938;-86
2024/01/28 11:18:13;;;;;;;;;;;;;;;1.55;81.63;102065.28;4911762;29;20022;-87
2024/01/28 11:20:41;;;;;;;;;;;;;;;1.62;81.83;102056.09;4912746;29;19993;-87
2024/01/28 11:23:14;;;;;;;;;;;;;;;1.66;81.83;102054.56;4929714;29;19926;-86
2024/01/28 11:25:40;;;;;;;;;;;;;;;1.78;82.27;102054.25;4913589;29;19927;-86
2024/01/28 11:28:07;;;;;;;;;;;;;;;1.74;82.11;102058.41;4910334;28;19990;-87
2024/01/28 11:30:34;;;;;;;;;;;;;;;1.96;82.42;102054.22;4925714;28;19926;-86
2024/01/28 11:33:11;;;;;;;;;;;;;;;1.98;81.14;102048.28;4925919;28;19974;-87
2024/01/28 11:35:41;;;;;;;;;;;;;;;2.24;81.29;102051.16;4926770;28;20014;-87
2024/01/28 11:38:10;;;;;;;;;;;;;;;2.33;80.70;102037.72;4929533;28;19936;-86
2024/01/28 11:40:38;;;;;;;;;;;;;;;2.62;79.66;102036.41;4926943;29;19934;-86
2024/01/28 11:43:06;;;;;;;;;;;;;;;2.90;79.61;102029.81;4928347;28;19970;-87
2024/01/28 11:45:33;;;;;;;;;;;;;;;2.94;78.65;102027.41;4929121;28;19935;-86
2024/01/28 11:48:04;;;;;;;;;;;;;;;3.27;78.53;102015.75;4923887;29;19927;-88
2024/01/28 11:50:31;;;;;;;;;;;;;;;3.02;78.68;102022.53;4924264;28;19942;-87
2024/01/28 11:52:58;;;;;;;;;;;;;;;3.37;77.11;102015.28;4915244;28;19973;-88
2024/01/28 11:55:25;;;;;;;;;;;;;;;3.65;75.99;102011.19;4902629;28;19935;-85
2024/01/28 11:57:51;;;;;;;;;;;;;;;3.90;74.14;101999.13;4922372;28;19964;-86
2024/01/28 12:00:18;;;;;;;;;;;;;;;3.66;71.43;101999.97;4926681;29;20009;-86
2024/01/28 12:02:45;;;;;;;;;;;;;;;4.00;71.67;101996.03;4903449;28;19935;-85
2024/01/28 12:05:12;;;;;;;;;;;;;;;3.94;70.96;101999.31;4905778;29;19994;-85
2024/01/28 12:07:38;;;;;;;;;;;;;;;4.31;70.32;101994.53;4911055;29;19927;-85
2024/01/28 12:10:07;;;;;;;;;;;;;;;4.46;67.76;101989.91;4925994;29;19927;-85
2024/01/28 12:12:37;;;;;;;;;;;;;;;4.60;68.30;101986.88;4932522;28;19933;-85
2024/01/28 12:15:04;;;;;;;;;;;;;;;4.64;67.94;101986.16;4928227;28;19931;-85
2024/01/28 12:17:38;;;;;;;;;;;;;;;4.78;69.98;101979.72;4900642;28;19946;-85
2024/01/28 12:20:05;;;;;;;;;;;;;;;4.94;67.87;101980.19;4916928;28;19949;-89
2024/01/28 12:22:37;;;;;;;;;;;;;;;5.30;70.12;101984.81;4928062;28;19931;-87
2024/01/28 12:25:08;;;;;;;;;;;;;;;5.51;68.66;101964.63;4930777;29;20025;-87
2024/01/28 12:27:36;;;;;;;;;;;;;;;5.57;66.39;101970.03;4924534;29;20010;-86
2024/01/28 12:30:03;;;;;;;;;;;;;;;5.30;67.77;101963.97;4926602;28;19973;-86
2024/01/28 12:32:29;;;;;;;;;;;;;;;5.71;68.81;101956.56;4927502;28;20152;-85
2024/01/28 12:35:03;;;;;;;;;;;;;;;5.53;66.78;101952.56;4932567;28;19986;-85
2024/01/28 12:37:30;;;;;;;;;;;;;;;5.91;66.87;101937.16;4906563;28;19927;-87